Time;durP1;ratioP1;P1;durP2;ratioP2;P2;SDS_P1;SDS_P2;PMS_P1;PMS_P2;Temp;Humidity;BMP_temperature;BMP_pressure;BME280_temperature;BME280_humidity;BME280_pressure;Samples;Min_cycle;Max_cycle;Signal;HPM_P1;HPM_P2
2022/04/16 03:50:36;;;;;;;;;;;;;;;8.45;70.02;102001.81;4958704;29;1961;-91
2022/04/16 04:02:24;;;;;;;;;;;;;;;8.69;69.97;102015.34;4956780;29;1240;-90
2022/04/16 04:05:48;;;;;;;;;;;;;;;8.61;70.29;102010.22;4939010;29;1231;-90
2022/04/16 04:23:46;;;;;;;;;;;;;;;8.40;69.90;102024.34;4974970;28;1360;-91
2022/04/16 04:26:40;;;;;;;;;;;;;;;8.08;70.00;102033.72;4942100;28;1490;-90
2022/04/16 04:32:13;;;;;;;;;;;;;;;7.70;70.57;102033.91;4955009;29;1981;-91
2022/04/16 04:35:03;;;;;;;;;;;;;;;;;;;;;
2022/04/16 04:50:15;;;;;;;;;;;;;;;7.28;69.44;102068.19;4916240;29;1915;-91
2022/04/16 05:48:29;;;;;;;;;;;;;;;7.36;64.58;102152.38;4951641;29;1509;-90
2022/04/16 05:54:17;;;;;;;;;;;;;;;7.42;63.62;102149.59;4931876;29;1542;-89
2022/04/16 06:02:50;;;;;;;;;;;;;;;7.04;64.42;102160.50;4953786;29;1287;-91
2022/04/16 06:05:31;;;;;;;;;;;;;;;7.24;64.66;102160.38;4937628;29;1253;-91
2022/04/16 06:08:23;;;;;;;;;;;;;;;7.27;64.60;102170.03;4937886;29;1221;-91
2022/04/16 06:10:50;;;;;;;;;;;;;;;7.34;63.03;102176.25;4953329;28;1969;-89
2022/04/16 06:13:24;;;;;;;;;;;;;;;7.34;62.83;102179.81;4957418;28;1569;-92
2022/04/16 06:15:49;;;;;;;;;;;;;;;7.43;62.23;102180.41;4958198;28;1248;-90
2022/04/16 06:18:14;;;;;;;;;;;;;;;7.52;62.04;102187.25;4958092;28;1248;-91
2022/04/16 06:20:45;;;;;;;;;;;;;;;7.47;62.20;102184.38;4943536;28;1344;-91
2022/04/16 06:23:33;;;;;;;;;;;;;;;;;;;;;
2022/04/16 06:26:01;;;;;;;;;;;;;;;7.55;61.62;102186.84;4955429;28;1167;-90
2022/04/16 06:28:26;;;;;;;;;;;;;;;7.64;61.20;102181.97;4938861;29;1272;-90
2022/04/16 06:30:51;;;;;;;;;;;;;;;7.43;59.70;102191.31;4938609;29;1906;-90
2022/04/16 06:33:17;;;;;;;;;;;;;;;7.51;60.22;102193.75;4938320;29;1295;-90
2022/04/16 06:35:45;;;;;;;;;;;;;;;7.47;59.87;102192.53;4938654;29;1219;-91
2022/04/16 06:38:19;;;;;;;;;;;;;;;7.44;59.61;102193.81;4938988;29;1374;-91
2022/04/16 06:40:45;;;;;;;;;;;;;;;7.53;59.96;102195.22;4938450;29;1134;-90
2022/04/16 06:43:10;;;;;;;;;;;;;;;7.60;59.85;102193.28;4938147;29;1261;-90
2022/04/16 06:45:35;;;;;;;;;;;;;;;7.74;60.03;102193.22;4926903;29;1320;-91
2022/04/16 06:48:00;;;;;;;;;;;;;;;7.65;59.54;102192.66;4919238;29;1242;-89
2022/04/16 06:50:25;;;;;;;;;;;;;;;7.51;58.87;102194.59;4953587;28;1961;-90
2022/04/16 06:52:53;;;;;;;;;;;;;;;7.61;59.50;102188.69;4947744;28;1521;-90
2022/04/16 06:55:19;;;;;;;;;;;;;;;7.66;59.02;102182.56;4957888;28;1107;-90
2022/04/16 06:57:44;;;;;;;;;;;;;;;7.66;58.51;102188.84;4957321;28;996;-90
2022/04/16 07:00:10;;;;;;;;;;;;;;;7.72;58.79;102189.88;4951398;28;1646;-89
2022/04/16 07:02:36;;;;;;;;;;;;;;;7.69;57.64;102191.13;4957432;28;1321;-91
2022/04/16 07:05:02;;;;;;;;;;;;;;;7.81;57.24;102200.28;4951716;29;1552;-90
2022/04/16 07:07:27;;;;;;;;;;;;;;;7.88;56.91;102195.63;4938192;29;1218;-89
2022/04/16 07:09:53;;;;;;;;;;;;;;;7.83;56.01;102195.44;4938087;29;1923;-89
2022/04/16 07:12:18;;;;;;;;;;;;;;;7.48;53.41;102205.13;4937895;29;1230;-90
2022/04/16 07:14:43;;;;;;;;;;;;;;;7.54;53.82;102210.53;4957746;28;1059;-89
2022/04/16 07:17:08;;;;;;;;;;;;;;;7.81;55.58;102208.47;4940955;29;1374;-90
2022/04/16 07:19:34;;;;;;;;;;;;;;;7.78;54.13;102200.72;4954983;29;1348;-91
2022/04/16 07:22:00;;;;;;;;;;;;;;;7.83;54.29;102203.59;4958056;29;794;-89
2022/04/16 07:24:25;;;;;;;;;;;;;;;7.90;53.57;102209.03;4948951;28;1396;-90
2022/04/16 07:26:53;;;;;;;;;;;;;;;8.02;53.17;102211.88;4957833;28;1355;-89
2022/04/16 07:29:18;;;;;;;;;;;;;;;7.78;49.45;102210.78;4960579;28;1541;-89
2022/04/16 07:31:43;;;;;;;;;;;;;;;7.90;52.14;102215.31;4954333;28;1898;-89
2022/04/16 07:34:08;;;;;;;;;;;;;;;7.78;51.84;102208.06;4960367;28;1222;-89
2022/04/16 07:36:33;;;;;;;;;;;;;;;7.88;52.07;102211.13;4960069;28;1525;-89
2022/04/16 07:38:58;;;;;;;;;;;;;;;7.98;50.85;102204.16;4923033;29;1225;-90
2022/04/16 07:41:23;;;;;;;;;;;;;;;8.10;51.77;102204.25;4939198;29;1108;-89
2022/04/16 07:43:49;;;;;;;;;;;;;;;8.21;51.31;102202.69;4924632;29;1273;-89
2022/04/16 07:46:15;;;;;;;;;;;;;;;8.18;50.50;102200.41;4941175;29;1313;-89
2022/04/16 07:48:40;;;;;;;;;;;;;;;8.26;50.78;102203.69;4941256;29;1249;-89
2022/04/16 07:51:06;;;;;;;;;;;;;;;8.31;50.50;102194.88;4940908;29;1958;-89
2022/04/16 07:53:31;;;;;;;;;;;;;;;8.36;48.57;102197.75;4940904;29;1305;-89
2022/04/16 07:55:56;;;;;;;;;;;;;;;8.40;49.14;102206.34;4956351;28;1438;-90
2022/04/16 07:58:22;;;;;;;;;;;;;;;8.28;46.13;102200.72;4954052;28;1347;-89
2022/04/16 08:00:47;;;;;;;;;;;;;;;8.38;47.60;102201.09;4946713;28;1450;-90
2022/04/16 08:03:12;;;;;;;;;;;;;;;8.40;47.37;102204.44;4940561;29;1309;-89
2022/04/16 08:05:37;;;;;;;;;;;;;;;8.51;47.47;102209.13;4943777;29;1000;-89
2022/04/16 08:08:04;;;;;;;;;;;;;;;8.54;46.98;102208.69;4946598;29;1264;-89
2022/04/16 08:10:29;;;;;;;;;;;;;;;8.60;46.82;102201.50;4940867;28;1966;-88
2022/04/16 08:12:55;;;;;;;;;;;;;;;8.60;47.22;102206.94;4921407;29;1273;-89
2022/04/16 08:15:20;;;;;;;;;;;;;;;8.64;46.25;102200.84;4922397;29;1522;-88
2022/04/16 08:17:45;;;;;;;;;;;;;;;8.74;46.71;102200.31;4921467;29;910;-89
2022/04/16 08:20:10;;;;;;;;;;;;;;;8.75;45.81;102206.59;4921658;29;1061;-90
2022/04/16 08:22:35;;;;;;;;;;;;;;;8.71;47.37;102212.50;4941559;28;1256;-91
2022/04/16 08:27:45;;;;;;;;;;;;;;;8.73;48.38;102209.56;4977549;28;644;-90
2022/04/16 08:30:14;;;;;;;;;;;;;;;8.91;49.63;102211.47;4977155;28;1990;-90
2022/04/16 08:32:41;;;;;;;;;;;;;;;9.03;49.27;102212.34;4959733;28;1301;-90
2022/04/16 08:35:06;;;;;;;;;;;;;;;8.93;47.15;102201.97;4959463;28;1251;-91
2022/04/16 08:37:31;;;;;;;;;;;;;;;8.94;46.75;102202.78;4942078;28;1933;-90
2022/04/16 08:39:57;;;;;;;;;;;;;;;8.96;47.31;102197.94;4963945;28;1114;-89
2022/04/16 08:42:22;;;;;;;;;;;;;;;9.02;47.29;102213.41;4940044;29;1258;-90
2022/04/16 08:44:47;;;;;;;;;;;;;;;8.99;47.23;102211.16;4939844;29;1151;-89
2022/04/16 08:47:14;;;;;;;;;;;;;;;8.99;47.19;102211.16;4940229;28;842;-88
2022/04/16 08:49:41;;;;;;;;;;;;;;;9.09;46.59;102206.84;4920738;29;1217;-88
2022/04/16 08:52:08;;;;;;;;;;;;;;;9.20;46.74;102204.38;4937865;29;1902;-90
2022/04/16 08:54:34;;;;;;;;;;;;;;;9.22;47.74;102208.56;4943515;28;1558;-88
2022/04/16 08:57:00;;;;;;;;;;;;;;;9.29;47.07;102214.75;4920929;29;1265;-89
2022/04/16 08:59:25;;;;;;;;;;;;;;;9.31;46.65;102212.63;4920722;29;989;-87
2022/04/16 09:01:51;;;;;;;;;;;;;;;9.29;45.40;102214.75;4925228;29;1269;-87
2022/04/16 09:04:20;;;;;;;;;;;;;;;9.35;45.44;102210.28;4953207;29;1409;-89
2022/04/16 09:06:54;;;;;;;;;;;;;;;9.38;46.24;102212.53;4952336;29;1306;-88
2022/04/16 09:09:20;;;;;;;;;;;;;;;9.35;45.89;102208.41;4945504;28;1686;-88
2022/04/16 09:11:48;;;;;;;;;;;;;;;9.37;45.80;102214.44;4931298;29;1899;-88
2022/04/16 09:14:13;;;;;;;;;;;;;;;9.38;45.17;102207.91;4938367;29;1605;-89
2022/04/16 09:16:38;;;;;;;;;;;;;;;9.41;46.90;102217.56;4938810;29;1585;-89
2022/04/16 09:19:04;;;;;;;;;;;;;;;9.52;46.53;102214.06;4935789;29;1206;-89
2022/04/16 09:21:29;;;;;;;;;;;;;;;9.49;46.06;102220.81;4937741;29;1700;-88
2022/04/16 11:34:14;;;;;;;;;;;;;;;11.16;42.63;102215.00;4967649;28;1490;-90
2022/04/16 11:36:26;;;;;;;;;;;;;;;11.26;41.82;102209.72;4959531;29;671;-91
2022/04/16 11:38:53;;;;;;;;;;;;;;;11.36;42.29;102209.94;4944773;29;1319;-90
2022/04/16 11:41:19;;;;;;;;;;;;;;;11.34;41.36;102196.47;4977678;28;1446;-90
2022/04/16 11:43:50;;;;;;;;;;;;;;;11.41;42.59;102207.28;4960520;28;1273;-91
2022/04/16 11:46:16;;;;;;;;;;;;;;;11.41;41.25;102207.28;4960533;28;1386;-90
2022/04/16 11:48:45;;;;;;;;;;;;;;;11.50;42.12;102204.97;4978095;28;763;-90
2022/04/16 11:51:14;;;;;;;;;;;;;;;11.49;40.65;102201.41;4960618;28;1902;-90
2022/04/16 11:53:43;;;;;;;;;;;;;;;11.51;42.51;102202.00;4960433;28;1218;-90
2022/04/16 11:56:09;;;;;;;;;;;;;;;11.60;42.05;102199.69;4952379;29;1739;-90
2022/04/16 11:58:35;;;;;;;;;;;;;;;11.66;42.02;102194.06;4941320;29;1218;-90
2022/04/16 12:01:02;;;;;;;;;;;;;;;11.67;42.17;102187.50;4941078;29;1240;-90
2022/04/16 12:03:36;;;;;;;;;;;;;;;11.69;41.63;102185.34;4941074;29;1350;-91
2022/04/16 12:06:01;;;;;;;;;;;;;;;11.68;40.45;102180.09;4941356;29;1364;-90
2022/04/16 12:08:27;;;;;;;;;;;;;;;11.73;42.15;102183.78;4941226;29;1056;-91
2022/04/16 12:10:52;;;;;;;;;;;;;;;11.83;42.01;102185.88;4941134;29;1906;-90
2022/04/16 12:13:18;;;;;;;;;;;;;;;11.89;42.48;102181.31;4941025;29;1777;-90
2022/04/16 12:15:44;;;;;;;;;;;;;;;11.94;41.76;102189.63;4940934;29;1266;-90
2022/04/16 12:18:10;;;;;;;;;;;;;;;11.97;41.17;102184.50;4941058;29;1330;-90
2022/04/16 12:20:39;;;;;;;;;;;;;;;11.95;41.39;102177.59;4941025;29;1347;-90
2022/04/16 12:23:05;;;;;;;;;;;;;;;12.02;40.29;102176.34;4940582;28;1199;-90
2022/04/16 12:25:30;;;;;;;;;;;;;;;12.10;41.67;102177.81;4940840;29;1280;-90
2022/04/16 12:27:57;;;;;;;;;;;;;;;12.17;41.17;102173.00;4957555;28;1511;-90
2022/04/16 12:30:24;;;;;;;;;;;;;;;12.20;40.91;102178.00;4959826;28;1902;-90
2022/04/16 12:33:00;;;;;;;;;;;;;;;12.28;41.40;102169.34;4959997;28;1309;-90
2022/04/16 12:35:29;;;;;;;;;;;;;;;12.38;41.03;102179.66;4959845;28;1203;-90
2022/04/16 12:37:55;;;;;;;;;;;;;;;12.48;41.09;102179.81;4959862;28;1346;-90
2022/04/16 12:40:21;;;;;;;;;;;;;;;12.48;39.71;102166.06;4959761;28;1344;-90
2022/04/16 12:42:46;;;;;;;;;;;;;;;12.58;39.93;102168.13;4956078;28;1785;-90
2022/04/16 12:45:12;;;;;;;;;;;;;;;12.58;40.55;102163.47;4956181;28;1288;-91
2022/04/16 12:47:37;;;;;;;;;;;;;;;12.66;39.70;102159.47;4956473;28;1217;-90
2022/04/16 12:50:03;;;;;;;;;;;;;;;12.74;39.47;102159.84;4956627;28;1285;-92
2022/04/16 12:52:28;;;;;;;;;;;;;;;12.77;39.71;102164.81;4956662;29;1957;-92
2022/04/16 12:54:53;;;;;;;;;;;;;;;12.89;39.75;102151.78;4956009;29;1511;-90
2022/04/16 12:57:18;;;;;;;;;;;;;;;12.99;40.13;102150.25;4956595;29;1098;-90
2022/04/16 12:59:43;;;;;;;;;;;;;;;13.08;41.16;102146.81;4956466;28;1819;-90
2022/04/16 13:02:09;;;;;;;;;;;;;;;13.14;38.69;102140.31;4940030;29;660;-91
2022/04/16 13:04:34;;;;;;;;;;;;;;;13.22;39.89;102131.59;4955685;29;1296;-90
2022/04/16 13:06:59;;;;;;;;;;;;;;;13.35;39.13;102137.78;4956230;28;1442;-90
2022/04/16 13:09:24;;;;;;;;;;;;;;;13.51;40.54;102131.34;4955820;28;1407;-91
2022/04/16 13:11:51;;;;;;;;;;;;;;;13.72;38.47;102124.94;4953540;28;1957;-91
2022/04/16 13:14:17;;;;;;;;;;;;;;;13.99;38.71;102131.22;4975125;28;1309;-90
2022/04/16 13:16:42;;;;;;;;;;;;;;;14.31;39.55;102135.84;4975511;28;1353;-90
2022/04/16 13:19:07;;;;;;;;;;;;;;;15.17;37.41;102128.00;4974447;28;1074;-90
2022/04/16 13:21:33;;;;;;;;;;;;;;;20.24;28.08;102116.72;4974743;28;968;-90
2022/04/16 13:23:58;;;;;;;;;;;;;;;24.93;22.89;102113.28;4973441;28;1293;-91
2022/04/16 13:26:23;;;;;;;;;;;;;;;27.11;20.53;102118.00;4952997;28;1461;-91
2022/04/16 13:28:50;;;;;;;;;;;;;;;28.42;18.84;102104.91;4955240;29;1532;-91
2022/04/16 13:31:15;;;;;;;;;;;;;;;26.90;19.11;102106.03;4939589;29;1895;-92
2022/04/16 13:33:49;;;;;;;;;;;;;;;26.15;19.28;102103.53;4939260;29;1366;-91
2022/04/16 13:36:14;;;;;;;;;;;;;;;26.59;19.53;102106.66;4939479;29;1191;-91
2022/04/16 13:38:40;;;;;;;;;;;;;;;24.63;20.24;102108.81;4940842;28;1173;-91
2022/04/16 13:43:49;;;;;;;;;;;;;;;23.49;22.43;102111.38;4964300;28;1489;-90
2022/04/16 13:46:14;;;;;;;;;;;;;;;23.56;21.94;102111.72;4993861;28;1154;-90
2022/04/16 13:48:39;;;;;;;;;;;;;;;24.19;21.43;102094.16;4969883;28;1520;-90
2022/04/16 13:51:04;;;;;;;;;;;;;;;22.59;23.29;102109.00;4975438;28;1891;-91
2022/04/16 13:53:29;;;;;;;;;;;;;;;20.55;24.18;102105.84;4946019;28;1680;-91
2022/04/16 13:55:55;;;;;;;;;;;;;;;20.15;26.37;102104.66;4949719;28;1541;-91
2022/04/16 13:58:20;;;;;;;;;;;;;;;19.93;27.29;102110.03;4961957;28;1351;-90
2022/04/16 14:00:45;;;;;;;;;;;;;;;19.05;28.25;102108.06;4977890;28;1217;-90
2022/04/16 14:03:10;;;;;;;;;;;;;;;18.86;28.89;102106.09;4977137;28;1170;-91
2022/04/16 14:05:44;;;;;;;;;;;;;;;18.98;27.57;102096.47;4954916;28;1346;-91
2022/04/16 14:08:10;;;;;;;;;;;;;;;18.97;28.28;102103.97;4939229;29;1223;-90
2022/04/16 14:10:35;;;;;;;;;;;;;;;18.61;29.51;102094.47;4938874;29;1956;-90
2022/04/16 14:13:01;;;;;;;;;;;;;;;17.47;28.87;102088.59;4937761;29;1243;-90
2022/04/16 14:15:26;;;;;;;;;;;;;;;17.12;30.57;102096.00;4954836;29;1366;-90
2022/04/16 14:17:51;;;;;;;;;;;;;;;17.95;29.32;102092.38;4954878;29;1241;-90
2022/04/16 14:20:17;;;;;;;;;;;;;;;18.20;29.44;102099.63;4954460;29;1307;-90
2022/04/16 14:22:42;;;;;;;;;;;;;;;18.02;29.73;102098.41;4955484;28;1319;-90
2022/04/16 14:25:08;;;;;;;;;;;;;;;18.26;28.76;102099.28;4959638;28;1453;-91
2022/04/16 14:27:33;;;;;;;;;;;;;;;17.25;29.36;102097.31;4977528;28;1242;-91
2022/04/16 14:29:58;;;;;;;;;;;;;;;17.93;29.11;102092.66;4977172;28;826;-91
2022/04/16 14:32:23;;;;;;;;;;;;;;;17.78;29.40;102096.38;4977073;28;1902;-90
2022/04/16 14:34:49;;;;;;;;;;;;;;;16.96;30.75;102088.91;4972971;28;1461;-91
2022/04/16 14:37:14;;;;;;;;;;;;;;;16.32;31.58;102097.16;4969547;28;1365;-91
2022/04/16 14:39:39;;;;;;;;;;;;;;;17.13;31.00;102092.13;4938554;29;1378;-91
2022/04/16 14:42:06;;;;;;;;;;;;;;;16.78;29.50;102087.59;4942905;28;1482;-90
2022/04/16 14:44:34;;;;;;;;;;;;;;;16.11;31.54;102091.66;4945823;29;1502;-90
2022/04/16 14:46:59;;;;;;;;;;;;;;;16.10;31.30;102089.16;4938391;29;1218;-91
2022/04/16 14:49:24;;;;;;;;;;;;;;;16.25;31.20;102100.19;4938926;29;1135;-90
2022/04/16 14:51:51;;;;;;;;;;;;;;;16.45;30.80;102079.97;4938229;29;1952;-90
2022/04/16 14:54:17;;;;;;;;;;;;;;;17.05;30.81;102089.13;4962000;28;1229;-90
2022/04/16 14:56:44;;;;;;;;;;;;;;;17.93;30.32;102083.53;4973546;28;1194;-90
2022/04/16 14:59:09;;;;;;;;;;;;;;;18.46;27.58;102074.06;4974353;28;886;-90
2022/04/16 15:01:35;;;;;;;;;;;;;;;18.34;27.82;102079.22;4956115;28;1406;-90
2022/04/16 15:04:00;;;;;;;;;;;;;;;19.20;27.83;102068.97;4974453;28;1198;-92
2022/04/16 15:06:25;;;;;;;;;;;;;;;19.99;26.66;102070.72;4954695;28;1437;-91
2022/04/16 15:08:51;;;;;;;;;;;;;;;20.01;26.37;102073.19;4937890;29;1191;-91
2022/04/16 15:11:16;;;;;;;;;;;;;;;19.93;26.02;102069.16;4947337;29;1953;-90
2022/04/16 15:13:41;;;;;;;;;;;;;;;19.77;24.82;102067.78;4937415;29;1443;-91
2022/04/16 15:16:07;;;;;;;;;;;;;;;20.43;25.05;102057.41;4938302;29;1041;-91
2022/04/16 15:18:33;;;;;;;;;;;;;;;21.32;23.29;102060.50;4938321;29;1377;-91
2022/04/16 15:20:59;;;;;;;;;;;;;;;21.25;24.17;102058.16;4955086;28;1312;-90
2022/04/16 15:23:24;;;;;;;;;;;;;;;21.14;23.24;102063.09;4937914;29;1348;-91
2022/04/16 21:26:51;;;;;;;;;;;;;;;7.64;57.62;102132.91;4954641;29;1189;-89
2022/04/16 21:29:16;;;;;;;;;;;;;;;7.66;57.45;102141.66;4956929;28;1056;-89
2022/04/16 21:31:41;;;;;;;;;;;;;;;7.44;57.43;102133.03;4945221;29;1729;-90
2022/04/16 21:34:06;;;;;;;;;;;;;;;7.27;58.47;102140.06;4919426;29;1234;-89
2022/04/16 21:36:31;;;;;;;;;;;;;;;7.08;59.64;102133.66;4955967;28;1416;-89
2022/04/16 21:38:58;;;;;;;;;;;;;;;6.89;59.98;102149.03;4930770;29;1206;-89
2022/04/16 21:41:25;;;;;;;;;;;;;;;7.03;60.13;102150.66;4920072;29;1974;-90
2022/04/16 21:43:50;;;;;;;;;;;;;;;7.04;59.89;102149.63;4935785;29;1321;-90
2022/04/16 21:46:17;;;;;;;;;;;;;;;7.02;59.32;102142.72;4935671;29;1286;-90
2022/04/16 21:48:42;;;;;;;;;;;;;;;6.99;60.01;102135.81;4935910;29;1190;-90
2022/04/16 21:51:07;;;;;;;;;;;;;;;6.57;60.79;102156.28;4936627;29;1037;-90
2022/04/16 21:53:32;;;;;;;;;;;;;;;6.64;61.32;102148.91;4936571;29;834;-90
2022/04/16 21:56:00;;;;;;;;;;;;;;;6.23;61.90;102157.38;4933312;29;1518;-90
2022/04/16 21:58:25;;;;;;;;;;;;;;;6.51;61.16;102148.13;4936559;29;1341;-90
2022/04/16 22:01:13;;;;;;;;;;;;;;;6.42;61.69;102152.97;4955292;28;902;-90
2022/04/16 22:03:39;;;;;;;;;;;;;;;6.47;60.85;102158.59;4927756;29;1287;-89
2022/04/16 22:06:04;;;;;;;;;;;;;;;6.51;60.59;102154.41;4945344;29;1222;-89
2022/04/16 22:08:29;;;;;;;;;;;;;;;6.63;60.32;102157.31;4969035;28;1227;-89
2022/04/16 22:10:54;;;;;;;;;;;;;;;6.49;60.54;102163.81;4944270;28;1249;-90
2022/04/16 22:13:20;;;;;;;;;;;;;;;6.40;61.80;102172.22;4938093;29;1451;-89
2022/04/16 22:15:47;;;;;;;;;;;;;;;6.47;61.09;102175.75;4950124;29;1220;-88
2022/04/16 22:18:12;;;;;;;;;;;;;;;6.49;61.22;102174.72;4921835;29;1309;-89
2022/04/16 22:20:37;;;;;;;;;;;;;;;6.44;61.03;102170.75;4920831;29;1202;-89
2022/04/16 22:23:03;;;;;;;;;;;;;;;6.44;61.42;102168.03;4954572;29;1965;-88
2022/04/16 22:25:28;;;;;;;;;;;;;;;6.44;60.69;102173.47;4936749;29;1567;-88
2022/04/16 22:27:54;;;;;;;;;;;;;;;6.07;62.51;102174.97;4939870;28;1201;-89
2022/04/16 22:30:19;;;;;;;;;;;;;;;6.06;63.29;102169.75;4973009;28;1390;-88
2022/04/16 22:32:45;;;;;;;;;;;;;;;6.01;62.19;102169.56;4973484;28;1467;-88
2022/04/16 22:35:11;;;;;;;;;;;;;;;5.86;63.04;102171.63;4954182;28;1473;-88
2022/04/16 22:43:16;;;;;;;;;;;;;;;5.44;63.72;102167.38;4954623;29;1965;-88
2022/04/16 22:53:28;;;;;;;;;;;;;;;5.61;63.69;102166.75;4953210;29;1363;-88
2022/04/16 22:56:45;;;;;;;;;;;;;;;;;;;;;
2022/04/16 22:59:11;;;;;;;;;;;;;;;5.35;64.04;102177.59;4933411;29;1424;-88
2022/04/16 23:01:37;;;;;;;;;;;;;;;5.28;64.62;102168.56;4938182;29;1964;-88
2022/04/16 23:04:02;;;;;;;;;;;;;;;5.38;63.64;102174.47;4937739;28;1201;-88
2022/04/16 23:07:09;;;;;;;;;;;;;;;5.08;65.10;102173.13;4938300;29;1415;-88
2022/04/16 23:09:34;;;;;;;;;;;;;;;5.25;66.10;102169.00;4939298;29;1361;-88
2022/04/16 23:12:23;;;;;;;;;;;;;;;5.32;64.53;102175.28;4937692;29;1399;-88
2022/04/16 23:18:20;;;;;;;;;;;;;;;5.22;64.03;102163.97;4949652;29;596;-88
2022/04/16 23:21:14;;;;;;;;;;;;;;;4.91;65.38;102156.38;4948438;29;1352;-89
2022/04/16 23:24:00;;;;;;;;;;;;;;;4.98;65.09;102156.38;4950723;29;1299;-88
2022/04/16 23:26:26;;;;;;;;;;;;;;;5.04;65.34;102145.53;4935911;29;1656;-89
2022/04/16 23:28:52;;;;;;;;;;;;;;;5.17;64.30;102153.75;4937987;29;1356;-88
2022/04/16 23:31:17;;;;;;;;;;;;;;;5.09;64.13;102144.94;4937866;29;1434;-88
2022/04/16 23:33:45;;;;;;;;;;;;;;;5.00;64.90;102154.31;4937563;29;1202;-89
2022/04/16 23:36:14;;;;;;;;;;;;;;;4.64;65.48;102144.56;4938135;29;1454;-88
2022/04/16 23:38:43;;;;;;;;;;;;;;;4.79;65.79;102138.97;4954507;29;1529;-88
2022/04/16 23:41:11;;;;;;;;;;;;;;;4.79;65.56;102137.09;4937786;29;1887;-89
2022/04/16 23:43:37;;;;;;;;;;;;;;;4.79;65.52;102141.69;4937057;29;1690;-88
2022/04/16 23:48:46;;;;;;;;;;;;;;;3.99;66.92;102145.00;4954852;29;581;-88
2022/04/16 23:51:11;;;;;;;;;;;;;;;4.36;66.33;102143.75;4937496;29;1138;-88
2022/04/16 23:53:37;;;;;;;;;;;;;;;4.36;65.85;102141.88;4937186;29;1450;-88
2022/04/16 23:56:03;;;;;;;;;;;;;;;4.34;66.11;102138.53;4939266;29;1350;-88
2022/04/16 23:58:34;;;;;;;;;;;;;;;4.46;66.18;102128.81;4940377;29;1695;-88
